createdAt,value
2022-12-06T00:01:41.130Z,4.33
2022-12-06T00:04:29.569Z,4.20
2022-12-06T00:07:17.932Z,4.40
2022-12-06T00:10:08.565Z,4.40
2022-12-06T00:12:58.278Z,4.50
2022-12-06T00:15:46.655Z,4.27
2022-12-06T00:18:36.377Z,4.27
2022-12-06T00:21:26.063Z,4.20
2022-12-06T00:24:15.465Z,4.07
2022-12-06T00:27:03.870Z,4.27
2022-12-06T00:29:53.640Z,3.80
2022-12-06T00:32:42.057Z,4.07
2022-12-06T00:35:30.446Z,4.13
2022-12-06T00:38:18.896Z,4.00
2022-12-06T00:41:08.891Z,4.00
2022-12-06T00:43:57.778Z,3.50
2022-12-06T00:46:47.492Z,4.40
2022-12-06T00:49:35.900Z,4.20
2022-12-06T00:52:24.306Z,4.10
2022-12-06T00:55:12.720Z,4.67
2022-12-06T00:58:01.170Z,5.40
2022-12-06T01:00:49.969Z,5.07
2022-12-06T01:03:39.854Z,5.40
2022-12-06T01:06:29.716Z,4.93
2022-12-06T01:09:18.084Z,4.30
2022-12-06T01:12:06.934Z,4.80
2022-12-06T01:14:55.325Z,4.33
2022-12-06T01:17:43.745Z,4.30
2022-12-06T01:20:33.535Z,4.30
2022-12-06T01:23:21.905Z,4.27
2022-12-06T01:26:16.512Z,4.17
2022-12-06T01:29:04.983Z,4.83
2022-12-06T01:31:53.396Z,4.70
2022-12-06T01:34:41.843Z,4.43
2022-12-06T01:37:31.640Z,4.23
2022-12-06T01:40:20.210Z,4.50
2022-12-06T01:43:32.765Z,4.70
2022-12-06T01:46:31.065Z,4.00
2022-12-06T01:49:21.447Z,4.37
2022-12-06T01:52:11.741Z,4.17
2022-12-06T01:55:01.547Z,4.57
2022-12-06T01:57:50.042Z,4.80
2022-12-06T02:00:38.426Z,4.20
2022-12-06T02:03:28.788Z,4.60
2022-12-06T02:06:17.337Z,4.60
2022-12-06T02:09:07.297Z,4.23
2022-12-06T02:11:57.044Z,4.90
2022-12-06T02:14:47.714Z,4.57
2022-12-06T02:17:41.852Z,4.20
2022-12-06T02:20:32.416Z,4.33
2022-12-06T02:23:55.694Z,4.47
2022-12-06T02:26:45.115Z,4.57
2022-12-06T02:29:57.438Z,4.77
2022-12-06T02:32:54.898Z,4.93
2022-12-06T02:35:47.628Z,4.50
2022-12-06T02:38:38.598Z,4.60
2022-12-06T02:41:29.579Z,4.27
2022-12-06T02:44:21.706Z,4.23
2022-12-06T02:47:11.868Z,4.50
2022-12-06T02:50:02.177Z,4.30
2022-12-06T02:52:52.375Z,4.30
2022-12-06T02:55:40.774Z,4.17
2022-12-06T02:58:29.113Z,4.40
2022-12-06T03:01:18.827Z,4.40
2022-12-06T03:04:46.580Z,4.60
2022-12-06T03:07:41.498Z,4.23
2022-12-06T03:10:39.454Z,4.17
2022-12-06T03:13:33.726Z,4.10
2022-12-06T03:16:25.919Z,4.43
2022-12-06T03:19:17.146Z,4.57
2022-12-06T03:22:07.750Z,4.70
2022-12-06T03:24:57.738Z,4.87
2022-12-06T03:27:46.290Z,4.40
2022-12-06T03:30:34.718Z,4.83
2022-12-06T03:33:24.564Z,4.97
2022-12-06T03:36:12.928Z,4.90
2022-12-06T03:39:03.052Z,4.57
2022-12-06T03:41:54.651Z,4.40
2022-12-06T03:44:43.069Z,4.47
2022-12-06T03:47:36.021Z,4.90
2022-12-06T03:50:28.653Z,4.23
2022-12-06T03:53:18.317Z,4.20
2022-12-06T03:56:07.540Z,4.47
2022-12-06T03:58:57.249Z,4.20
2022-12-06T04:01:45.686Z,4.60
2022-12-06T04:04:34.088Z,3.70
2022-12-06T04:07:22.818Z,4.27
2022-12-06T04:10:12.086Z,4.53
2022-12-06T04:13:01.494Z,4.50
2022-12-06T04:15:51.819Z,4.43
2022-12-06T04:18:39.226Z,4.33
2022-12-06T04:21:45.400Z,4.50
2022-12-06T04:24:33.938Z,5.30
2022-12-06T04:27:40.109Z,4.70
2022-12-06T04:30:46.376Z,4.47
2022-12-06T04:33:53.745Z,4.40
2022-12-06T04:36:59.586Z,4.90
2022-12-06T04:39:48.086Z,4.40
2022-12-06T04:42:54.191Z,4.57
2022-12-06T04:45:42.550Z,4.23
2022-12-06T04:48:30.932Z,4.47
2022-12-06T04:51:20.709Z,4.07
2022-12-06T04:54:09.082Z,4.40
2022-12-06T04:56:57.891Z,4.83
2022-12-06T04:59:47.165Z,4.43
2022-12-06T05:02:35.528Z,4.83
2022-12-06T05:05:24.216Z,4.63
2022-12-06T05:08:14.294Z,4.70
2022-12-06T05:11:03.590Z,4.73
2022-12-06T05:13:51.957Z,4.70
2022-12-06T05:16:40.695Z,5.17
2022-12-06T05:19:29.179Z,4.40
2022-12-06T05:22:17.642Z,4.57
2022-12-06T05:25:08.165Z,4.80
2022-12-06T05:27:56.566Z,5.50
2022-12-06T05:30:44.964Z,4.70
2022-12-06T05:33:33.450Z,4.87
2022-12-06T05:36:23.725Z,4.47
2022-12-06T05:39:12.115Z,4.63
2022-12-06T05:42:02.792Z,4.60
2022-12-06T05:44:51.153Z,4.27
2022-12-06T05:47:40.324Z,4.53
2022-12-06T05:50:28.715Z,4.67
2022-12-06T05:53:19.705Z,3.97
2022-12-06T05:56:09.202Z,4.47
2022-12-06T05:58:59.048Z,4.20
2022-12-06T06:01:47.517Z,4.93
2022-12-06T06:04:35.954Z,5.00
2022-12-06T06:07:24.315Z,4.87
2022-12-06T06:10:13.038Z,5.00
2022-12-06T06:13:01.416Z,4.87
2022-12-06T06:15:51.163Z,4.90
2022-12-06T06:18:39.730Z,5.30
2022-12-06T06:21:28.326Z,4.60
2022-12-06T06:24:16.733Z,4.23
2022-12-06T06:27:05.341Z,4.53
2022-12-06T06:29:53.696Z,4.10
2022-12-06T06:32:43.425Z,5.00
2022-12-06T06:35:31.862Z,4.30
2022-12-06T06:38:20.257Z,4.10
2022-12-06T06:41:08.968Z,4.60
2022-12-06T06:43:57.434Z,4.40
2022-12-06T06:46:45.852Z,4.67
2022-12-06T06:49:35.592Z,4.40
2022-12-06T06:52:23.969Z,4.10
2022-12-06T06:55:12.508Z,4.07
2022-12-06T06:58:01.108Z,3.67
2022-12-06T07:00:55.131Z,4.40
2022-12-06T07:03:43.644Z,4.50
2022-12-06T07:06:13.204Z,3.93
2022-12-06T07:08:41.644Z,4.27
2022-12-06T07:11:09.957Z,3.70
2022-12-06T07:13:38.427Z,3.80
2022-12-06T07:16:07.775Z,4.47
2022-12-06T07:18:35.891Z,4.10
2022-12-06T07:21:06.130Z,3.70
2022-12-06T07:23:36.458Z,3.90
2022-12-06T07:26:06.218Z,3.70
2022-12-06T07:28:36.152Z,3.53
2022-12-06T07:31:10.040Z,4.27
2022-12-06T07:33:38.311Z,3.80
2022-12-06T07:36:12.441Z,4.00
2022-12-06T07:38:43.269Z,3.80
2022-12-06T07:41:26.879Z,3.63
2022-12-06T07:44:13.397Z,3.93
2022-12-06T07:46:41.789Z,3.60
2022-12-06T07:49:10.457Z,4.10
2022-12-06T07:51:40.043Z,4.40
2022-12-06T07:54:09.827Z,4.20
2022-12-06T07:56:38.630Z,4.17
2022-12-06T07:59:06.871Z,5.97
2022-12-06T08:01:35.109Z,5.60
2022-12-06T08:04:03.576Z,7.83
2022-12-06T08:06:32.870Z,5.80
2022-12-06T08:09:00.999Z,7.60
2022-12-06T08:11:30.473Z,4.70
2022-12-06T08:13:58.614Z,4.97
2022-12-06T08:16:26.869Z,4.07
2022-12-06T08:18:55.017Z,3.90
2022-12-06T08:21:23.127Z,5.40
2022-12-06T08:23:51.164Z,4.77
2022-12-06T08:26:19.598Z,4.50
2022-12-06T08:28:49.040Z,18.80
2022-12-06T08:31:18.679Z,5.90
2022-12-06T08:33:47.040Z,18.83
2022-12-06T08:36:16.955Z,8.60
2022-12-06T08:38:45.233Z,7.03
2022-12-06T08:41:27.311Z,6.37
2022-12-06T08:43:58.954Z,6.13
2022-12-06T08:46:27.155Z,11.10
2022-12-06T08:48:55.439Z,6.03
2022-12-06T08:51:23.657Z,5.43
2022-12-06T08:53:53.248Z,4.40
2022-12-06T08:56:21.413Z,5.00
2022-12-06T08:58:49.605Z,17.10
2022-12-06T09:01:20.659Z,9.43
2022-12-06T09:03:48.929Z,4.90
2022-12-06T09:06:17.603Z,4.90
2022-12-06T09:08:46.198Z,5.30
2022-12-06T09:11:14.649Z,6.80
2022-12-06T09:13:42.833Z,4.33
2022-12-06T09:16:12.761Z,4.57
2022-12-06T09:18:42.291Z,4.20
2022-12-06T09:21:13.292Z,4.97
2022-12-06T09:23:41.407Z,5.10
2022-12-06T09:26:09.590Z,4.50
2022-12-06T09:28:38.941Z,4.37
2022-12-06T09:31:07.471Z,4.03
2022-12-06T09:33:36.356Z,3.97
2022-12-06T09:36:10.017Z,4.37
2022-12-06T09:38:38.173Z,4.87
2022-12-06T09:41:12.758Z,4.83
2022-12-06T09:43:51.154Z,5.23
2022-12-06T09:46:38.804Z,4.03
2022-12-06T09:49:24.657Z,3.90
2022-12-06T09:52:29.661Z,4.30
2022-12-06T09:55:24.786Z,4.30
2022-12-06T09:58:01.795Z,4.20
2022-12-06T10:00:32.707Z,3.70
2022-12-06T10:03:15.567Z,4.33
2022-12-06T10:05:57.985Z,3.73
2022-12-06T10:08:57.811Z,3.70
2022-12-06T10:11:36.749Z,3.60
2022-12-06T10:14:11.696Z,4.20
2022-12-06T10:16:49.238Z,4.43
2022-12-06T10:19:24.433Z,4.43
2022-12-06T10:22:00.463Z,4.60
2022-12-06T10:24:42.392Z,4.40
2022-12-06T10:27:14.613Z,4.47
2022-12-06T10:29:53.239Z,4.10
2022-12-06T10:32:32.536Z,4.40
2022-12-06T10:35:05.752Z,4.03
2022-12-06T10:37:39.240Z,3.83
2022-12-06T10:40:13.686Z,4.63
2022-12-06T10:42:44.224Z,3.73
2022-12-06T10:45:37.335Z,4.70
2022-12-06T10:48:09.768Z,4.13
2022-12-06T10:50:38.113Z,3.83
2022-12-06T10:53:12.693Z,3.90
2022-12-06T10:55:45.241Z,4.10
2022-12-06T10:58:18.278Z,4.67
2022-12-06T11:00:52.292Z,5.47
2022-12-06T11:03:22.456Z,4.57
2022-12-06T11:05:54.642Z,4.47
2022-12-06T11:08:26.548Z,4.77
2022-12-06T11:10:56.054Z,3.77
2022-12-06T11:13:34.027Z,3.90
2022-12-06T11:16:05.907Z,4.03
2022-12-06T11:18:34.127Z,4.33
2022-12-06T11:21:07.125Z,4.20
2022-12-06T11:23:40.335Z,4.30
2022-12-06T11:26:20.791Z,3.93
2022-12-06T11:28:55.475Z,3.93
2022-12-06T11:31:27.256Z,4.33
2022-12-06T11:33:55.522Z,4.20
2022-12-06T11:36:23.645Z,4.67
2022-12-06T11:38:51.744Z,4.80
2022-12-06T11:41:23.755Z,3.57
2022-12-06T11:43:52.428Z,4.10
2022-12-06T11:46:20.605Z,3.87
2022-12-06T11:48:48.764Z,3.70
2022-12-06T11:51:21.126Z,4.00
2022-12-06T11:53:57.485Z,3.73
2022-12-06T11:56:28.372Z,3.77
2022-12-06T11:59:06.517Z,3.60
2022-12-06T12:01:45.623Z,3.27
2022-12-06T12:04:38.613Z,3.40
2022-12-06T12:07:13.749Z,4.33
2022-12-06T12:09:53.771Z,3.70
2022-12-06T12:12:24.500Z,3.80
2022-12-06T12:14:57.362Z,3.93
2022-12-06T12:17:30.037Z,3.90
2022-12-06T12:19:59.981Z,4.30
2022-12-06T12:22:31.937Z,3.80
2022-12-06T12:27:51.246Z,6.03
2022-12-06T12:30:32.778Z,4.90
2022-12-06T12:33:16.755Z,4.23
2022-12-06T12:35:45.771Z,5.07
2022-12-06T12:38:28.720Z,3.87
2022-12-06T12:40:58.021Z,3.20
2022-12-06T12:43:28.536Z,4.40
2022-12-06T12:46:17.797Z,5.63
2022-12-06T12:48:46.871Z,3.73
2022-12-06T12:51:31.920Z,3.80
2022-12-06T12:54:01.951Z,3.40
2022-12-06T12:56:30.596Z,3.30
2022-12-06T12:59:14.325Z,4.07
2022-12-06T13:01:46.275Z,3.47
2022-12-06T13:04:21.329Z,3.60
2022-12-06T13:06:51.395Z,3.10
2022-12-06T13:09:25.464Z,3.70
2022-12-06T13:11:58.266Z,3.70
2022-12-06T13:14:27.773Z,3.70
2022-12-06T13:16:57.283Z,4.20
2022-12-06T13:19:34.669Z,5.53
2022-12-06T13:22:04.289Z,3.70
2022-12-06T13:24:32.536Z,3.43
2022-12-06T13:27:02.808Z,4.67
2022-12-06T13:29:34.753Z,3.13
2022-12-06T13:32:07.589Z,3.60
2022-12-06T13:34:38.583Z,3.57
2022-12-06T13:37:29.219Z,4.17
2022-12-06T13:39:57.417Z,3.70
2022-12-06T13:42:43.571Z,3.50
2022-12-06T13:45:46.460Z,4.47
2022-12-06T13:48:38.676Z,3.57
2022-12-06T13:51:11.820Z,3.40
2022-12-06T13:54:35.954Z,3.70
2022-12-06T13:57:26.410Z,3.53
2022-12-06T13:59:54.507Z,3.33
2022-12-06T14:02:54.299Z,3.70
2022-12-06T14:06:03.444Z,3.80
2022-12-06T14:08:41.661Z,3.40
2022-12-06T14:11:22.427Z,3.43
2022-12-06T14:14:01.293Z,3.83
2022-12-06T14:16:33.612Z,3.63
2022-12-06T14:19:05.512Z,3.43
2022-12-06T14:21:37.133Z,3.20
2022-12-06T14:24:05.811Z,3.17
2022-12-06T14:26:35.393Z,3.33
2022-12-06T14:29:03.545Z,3.60
2022-12-06T14:31:39.145Z,3.40
2022-12-06T14:34:26.611Z,3.47
2022-12-06T14:36:55.166Z,3.33
2022-12-06T14:39:25.591Z,3.10
2022-12-06T14:42:12.663Z,3.30
2022-12-06T14:44:42.199Z,3.40
2022-12-06T14:47:12.086Z,3.30
2022-12-06T14:49:59.517Z,3.07
2022-12-06T14:52:30.094Z,3.37
2022-12-06T14:55:17.139Z,3.57
2022-12-06T14:57:46.797Z,3.53
2022-12-06T15:00:25.959Z,3.10
2022-12-06T15:03:29.575Z,3.37
2022-12-06T15:06:14.897Z,2.93
2022-12-06T15:08:43.478Z,3.03
2022-12-06T15:11:50.042Z,3.40
2022-12-06T15:14:19.801Z,3.17
2022-12-06T15:16:58.336Z,3.93
2022-12-06T15:19:26.457Z,3.77
2022-12-06T15:21:55.915Z,5.10
2022-12-06T15:24:25.125Z,19.07
2022-12-06T15:26:53.338Z,22.10
2022-12-06T15:29:21.500Z,12.03
2022-12-06T15:31:50.998Z,5.83
2022-12-06T15:34:25.040Z,4.73
2022-12-06T15:37:15.166Z,4.30
2022-12-06T15:39:42.986Z,4.60
2022-12-06T15:42:16.747Z,5.53
2022-12-06T15:44:49.090Z,6.13
2022-12-06T15:47:19.470Z,4.23
2022-12-06T15:49:48.868Z,7.57
2022-12-06T15:52:19.487Z,5.47
2022-12-06T15:54:47.643Z,6.30
2022-12-06T15:57:15.804Z,5.90
2022-12-06T15:59:43.911Z,4.90
2022-12-06T16:02:15.303Z,4.50
2022-12-06T16:04:43.876Z,3.60
2022-12-06T16:07:13.321Z,3.10
2022-12-06T16:09:42.845Z,3.10
2022-12-06T16:12:11.104Z,3.03
2022-12-06T16:14:39.262Z,3.70
2022-12-06T16:17:07.327Z,3.27
2022-12-06T16:19:49.371Z,3.77
2022-12-06T16:22:17.414Z,3.30
2022-12-06T16:24:50.837Z,3.50
2022-12-06T16:27:21.802Z,3.37
2022-12-06T16:29:49.876Z,3.97
2022-12-06T16:32:17.982Z,6.27
2022-12-06T16:34:46.391Z,6.53
2022-12-06T16:37:14.557Z,7.23
2022-12-06T16:39:42.700Z,6.27
2022-12-06T16:42:12.179Z,5.83
2022-12-06T16:44:50.897Z,5.20
2022-12-06T16:49:49.004Z,3.73
2022-12-06T16:52:17.728Z,3.67
2022-12-06T16:54:45.833Z,3.63
2022-12-06T16:57:15.634Z,4.00
2022-12-06T16:59:43.792Z,4.10
2022-12-06T17:02:26.456Z,4.17
2022-12-06T17:04:54.764Z,4.30
2022-12-06T17:07:22.891Z,6.60
2022-12-06T17:09:50.966Z,5.73
2022-12-06T17:12:20.528Z,5.90
2022-12-06T17:14:48.621Z,6.13
2022-12-06T17:17:18.262Z,6.17
2022-12-06T17:19:46.364Z,6.73
2022-12-06T17:22:16.195Z,6.33
2022-12-06T17:24:44.442Z,6.50
2022-12-06T17:27:14.594Z,6.90
2022-12-06T17:29:45.351Z,6.63
2022-12-06T17:32:13.638Z,7.07
2022-12-06T17:34:41.721Z,7.30
2022-12-06T17:37:09.861Z,8.20
2022-12-06T17:39:37.976Z,8.37
2022-12-06T17:42:23.979Z,8.40
2022-12-06T17:44:53.531Z,7.30
2022-12-06T17:47:21.667Z,7.30
2022-12-06T17:49:49.763Z,7.17
2022-12-06T17:52:18.034Z,6.50
2022-12-06T17:54:46.086Z,5.90
2022-12-06T17:57:17.488Z,6.80
2022-12-06T17:59:46.284Z,6.50
2022-12-06T18:02:18.530Z,6.13
2022-12-06T18:04:47.791Z,6.33
2022-12-06T18:07:16.416Z,5.70
2022-12-06T18:09:44.602Z,5.57
2022-12-06T18:12:13.419Z,6.30
2022-12-06T18:14:41.508Z,6.30
2022-12-06T18:17:09.890Z,6.23
2022-12-06T18:19:40.298Z,5.90
2022-12-06T18:22:08.678Z,5.67
2022-12-06T18:24:37.006Z,5.47
2022-12-06T18:27:05.508Z,5.30
2022-12-06T18:29:33.932Z,5.77
2022-12-06T18:32:02.205Z,5.20
2022-12-06T18:34:30.677Z,5.53
2022-12-06T18:37:00.097Z,5.53
2022-12-06T18:39:28.265Z,6.23
2022-12-06T18:41:58.295Z,5.70
2022-12-06T18:44:26.426Z,5.70
2022-12-06T18:46:54.501Z,6.63
2022-12-06T18:49:22.581Z,5.80
2022-12-06T18:51:50.685Z,5.73
2022-12-06T18:54:20.444Z,6.33
2022-12-06T18:56:48.720Z,6.37
2022-12-06T18:59:16.809Z,6.70
2022-12-06T19:01:45.019Z,9.40
2022-12-06T19:04:16.382Z,9.57
2022-12-06T19:06:45.173Z,10.50
2022-12-06T19:09:14.781Z,10.60
2022-12-06T19:11:45.748Z,10.43
2022-12-06T19:14:14.646Z,12.27
2022-12-06T19:16:44.348Z,10.33
2022-12-06T19:19:16.545Z,11.60
2022-12-06T19:21:45.415Z,13.77
2022-12-06T19:24:15.479Z,12.50
2022-12-06T19:26:45.428Z,12.63
2022-12-06T19:29:14.045Z,11.67
2022-12-06T19:31:42.204Z,12.00
2022-12-06T19:34:15.592Z,11.77
2022-12-06T19:36:43.825Z,13.37
2022-12-06T19:39:12.450Z,11.17
2022-12-06T19:41:54.927Z,10.00
2022-12-06T19:44:24.407Z,8.10
2022-12-06T19:46:52.572Z,8.97
2022-12-06T19:49:22.917Z,8.90
2022-12-06T19:51:51.137Z,9.10
2022-12-06T19:54:20.943Z,9.03
2022-12-06T19:56:49.491Z,9.67
2022-12-06T19:59:17.523Z,9.37
2022-12-06T20:01:47.855Z,8.77
2022-12-06T20:04:16.706Z,7.73
2022-12-06T20:06:44.748Z,7.47
2022-12-06T20:09:12.914Z,6.60
2022-12-06T20:11:59.363Z,6.50
2022-12-06T20:14:27.551Z,6.00
2022-12-06T20:16:57.133Z,5.73
2022-12-06T20:19:25.432Z,5.20
2022-12-06T20:21:53.636Z,6.50
2022-12-06T20:24:22.435Z,6.50
2022-12-06T20:26:52.142Z,5.63
2022-12-06T20:29:20.620Z,6.20
2022-12-06T20:31:49.214Z,5.43
2022-12-06T20:34:18.829Z,5.97
2022-12-06T20:36:46.931Z,6.13
2022-12-06T20:39:20.770Z,5.43
2022-12-06T20:41:49.447Z,5.70
2022-12-06T20:44:17.636Z,6.27
2022-12-06T20:46:45.912Z,6.13
2022-12-06T20:49:14.048Z,6.47
2022-12-06T20:51:46.868Z,6.80
2022-12-06T20:54:19.881Z,6.67
2022-12-06T20:56:51.318Z,6.53
2022-12-06T20:59:19.532Z,7.07
2022-12-06T21:01:47.732Z,7.60
2022-12-06T21:04:34.658Z,7.53
2022-12-06T21:07:25.560Z,7.63
2022-12-06T21:10:13.942Z,6.53
2022-12-06T21:13:06.082Z,6.43
2022-12-06T21:16:02.411Z,6.47
2022-12-06T21:18:56.026Z,7.53
2022-12-06T21:21:46.735Z,7.47
2022-12-06T21:24:36.436Z,7.57
2022-12-06T21:27:24.773Z,7.13
2022-12-06T21:30:14.150Z,7.70
2022-12-06T21:33:04.935Z,8.17
2022-12-06T21:35:53.728Z,8.37
2022-12-06T21:38:42.071Z,7.33
2022-12-06T21:41:31.783Z,7.50
2022-12-06T21:44:20.125Z,7.30
2022-12-06T21:47:08.543Z,7.27
2022-12-06T21:49:56.893Z,7.90
2022-12-06T21:52:45.288Z,7.40
2022-12-06T21:55:33.622Z,7.17
2022-12-06T21:58:23.331Z,6.90
2022-12-06T22:01:13.320Z,5.97
2022-12-06T22:04:02.982Z,6.10
2022-12-06T22:06:51.369Z,6.30
2022-12-06T22:09:39.731Z,6.30
2022-12-06T22:12:28.308Z,5.97
2022-12-06T22:15:18.220Z,6.30
2022-12-06T22:18:06.687Z,6.00
2022-12-06T22:20:59.596Z,5.97
2022-12-06T22:23:48.251Z,5.27
2022-12-06T22:26:36.643Z,6.00
2022-12-06T22:29:25.031Z,5.77
2022-12-06T22:32:14.742Z,5.60
2022-12-06T22:35:03.118Z,5.50
2022-12-06T22:37:51.464Z,6.17
2022-12-06T22:40:39.814Z,9.63
2022-12-06T22:43:28.490Z,11.73
2022-12-06T22:46:17.058Z,6.57
2022-12-06T22:49:06.889Z,6.33
2022-12-06T22:51:55.266Z,6.07
2022-12-06T22:54:43.612Z,6.20
2022-12-06T22:57:31.952Z,5.70
2022-12-06T23:00:21.141Z,6.43
2022-12-06T23:03:09.560Z,6.43
2022-12-06T23:06:00.019Z,6.77
2022-12-06T23:08:48.660Z,6.00
2022-12-06T23:11:37.754Z,7.40
2022-12-06T23:14:26.129Z,7.30
2022-12-06T23:17:14.511Z,7.07
2022-12-06T23:20:03.219Z,6.30
2022-12-06T23:22:53.231Z,6.30
2022-12-06T23:25:41.650Z,6.50
2022-12-06T23:28:30.362Z,6.47
2022-12-06T23:31:20.382Z,5.87
2022-12-06T23:34:13.095Z,6.00
2022-12-06T23:37:01.414Z,6.00
2022-12-06T23:39:51.145Z,6.20
2022-12-06T23:42:39.532Z,5.80
2022-12-06T23:45:27.977Z,6.13
2022-12-06T23:48:16.374Z,6.50
2022-12-06T23:51:06.096Z,6.00
2022-12-06T23:53:56.903Z,6.03
2022-12-06T23:56:47.028Z,5.90
2022-12-06T23:59:35.588Z,5.40
